Impacts TAF Board INFO
FOR SITUATIONAL AWARENESS. NOT TO BE USED FOR FLIGHT PLANNING PURPOSES.
IDs:

KCLT - Charlotte/Douglas In, NC, US

Issued at 1345 UTC 23 Jun 2018
Updated at 1533 UTC 23 Jun 2018
Potential Impact None Slight Moderate High
Time<<24/16Z 24/17Z 24/18Z 24/19Z 24/20Z 24/21Z 24/22Z 24/23Z 25/00Z 25/01Z 25/02Z 25/03Z 25/04Z
Type PRVL PRVL
VIS >6 >6
CIG -- --
Cover SCT SCT
FltCat VFR VFR
WX -- --
WDir 250 250
WSpd 5 5
WGst -- --

Raw TAF
KCLT 231345Z 2314/2418 21010KT P6SM BKN014
  FM231500 23009KT P6SM FEW030 SCT170
  FM231800 24009G18KT P6SM SCT050
  FM240200 24004KT P6SM SCT250
  FM241600 25005KT P6SM FEW050 SCT250


METAR Board
Radar Display
Forecast Discussion

FOR SITUATIONAL AWARENESS. NOT TO BE USED FOR FLIGHT PLANNING PURPOSES.